createdAt,value
2017-12-01T00:00:54.293Z,0
2017-12-01T00:01:54.892Z,0
2017-12-01T00:02:55.491Z,0
2017-12-01T00:03:56.094Z,0
2017-12-01T00:04:56.693Z,0
2017-12-01T00:05:57.294Z,0
2017-12-01T00:06:57.896Z,0
2017-12-01T00:07:58.523Z,0
2017-12-01T00:08:59.131Z,0
2017-12-01T00:09:59.765Z,0
2017-12-01T00:11:00.389Z,0
2017-12-01T00:12:00.994Z,0
2017-12-01T00:13:01.594Z,0
2017-12-01T00:14:02.193Z,0
2017-12-01T00:15:02.823Z,0
2017-12-01T00:16:03.456Z,0
2017-12-01T00:17:04.057Z,0
2017-12-01T00:18:04.655Z,0
2017-12-01T00:19:05.255Z,0
2017-12-01T00:20:05.854Z,0
2017-12-01T00:21:06.455Z,0
2017-12-01T00:22:07.054Z,0
2017-12-01T00:23:07.655Z,0
2017-12-01T00:24:08.260Z,0
2017-12-01T00:25:08.891Z,0
2017-12-01T00:26:09.490Z,0
2017-12-01T00:27:10.091Z,0
2017-12-01T00:28:10.695Z,0
2017-12-01T00:29:11.297Z,0
2017-12-01T00:30:11.895Z,0
2017-12-01T00:31:12.495Z,0
2017-12-01T00:32:13.094Z,0
2017-12-01T00:33:13.691Z,0
2017-12-01T00:34:14.321Z,0
2017-12-01T00:35:14.920Z,0
2017-12-01T00:36:15.518Z,0
2017-12-01T00:37:16.119Z,0
2017-12-01T00:38:16.724Z,0
2017-12-01T00:39:17.322Z,0
2017-12-01T00:40:17.923Z,0
2017-12-01T00:41:18.518Z,0
2017-12-01T00:42:19.120Z,0
2017-12-01T00:43:19.719Z,0
2017-12-01T00:44:20.320Z,0
2017-12-01T00:45:20.918Z,0
2017-12-01T00:46:21.521Z,0
2017-12-01T00:47:22.170Z,0
2017-12-01T00:48:22.769Z,0
2017-12-01T00:49:23.399Z,0
2017-12-01T00:50:23.999Z,0
2017-12-01T00:51:24.598Z,0
2017-12-01T00:52:25.228Z,0
2017-12-01T00:53:25.833Z,0
2017-12-01T00:54:26.430Z,0
2017-12-01T00:55:27.036Z,0
2017-12-01T00:56:27.628Z,0
2017-12-01T00:57:28.225Z,0
2017-12-01T00:58:28.824Z,0
2017-12-01T00:59:29.424Z,0
2017-12-01T01:00:30.025Z,0
2017-12-01T01:01:30.632Z,0
2017-12-01T01:02:31.229Z,0
2017-12-01T01:03:31.824Z,0
2017-12-01T01:04:32.425Z,0
2017-12-01T01:05:33.024Z,0
2017-12-01T01:06:33.622Z,0
2017-12-01T01:07:34.225Z,0
2017-12-01T01:08:34.821Z,0
2017-12-01T01:09:35.423Z,0
2017-12-01T01:10:36.025Z,0
2017-12-01T01:11:36.623Z,0
2017-12-01T01:12:37.227Z,0
2017-12-01T01:13:37.825Z,0
2017-12-01T01:14:38.423Z,0
2017-12-01T01:15:39.026Z,0
2017-12-01T01:16:39.622Z,0
2017-12-01T01:17:40.276Z,0
2017-12-01T01:18:40.912Z,0
2017-12-01T01:19:41.513Z,0
2017-12-01T01:20:42.113Z,0
2017-12-01T01:21:42.710Z,0
2017-12-01T01:22:43.343Z,0
2017-12-01T01:23:43.977Z,0
2017-12-01T01:24:44.579Z,0
2017-12-01T01:25:45.179Z,0
2017-12-01T01:26:45.776Z,0
2017-12-01T01:27:46.380Z,0
2017-12-01T01:28:46.974Z,0
2017-12-01T01:29:47.575Z,0
2017-12-01T01:30:48.175Z,0
2017-12-01T01:31:48.779Z,0
2017-12-01T01:32:49.423Z,0
2017-12-01T01:33:50.023Z,0
2017-12-01T01:34:50.620Z,0
2017-12-01T01:35:51.219Z,0
2017-12-01T01:36:51.830Z,0
2017-12-01T01:37:52.431Z,0
2017-12-01T01:38:53.032Z,0
2017-12-01T01:39:53.666Z,0
2017-12-01T01:40:54.267Z,0
2017-12-01T01:41:54.864Z,0
2017-12-01T01:42:55.462Z,0
2017-12-01T01:43:56.069Z,0
2017-12-01T01:44:56.668Z,0
2017-12-01T01:45:57.266Z,0
2017-12-01T01:46:57.864Z,0
2017-12-01T01:47:58.463Z,0
2017-12-01T01:48:59.067Z,0
2017-12-01T01:49:59.664Z,0
2017-12-01T01:51:00.261Z,0
2017-12-01T01:52:00.860Z,0
2017-12-01T01:53:01.456Z,0
2017-12-01T01:54:02.084Z,0
2017-12-01T01:55:02.690Z,0
2017-12-01T01:56:03.282Z,0
2017-12-01T01:57:03.878Z,0
2017-12-01T01:58:04.475Z,0
2017-12-01T01:59:05.080Z,0
2017-12-01T02:00:05.714Z,0
2017-12-01T02:01:06.313Z,0
2017-12-01T02:02:06.913Z,0
2017-12-01T02:03:07.510Z,0
2017-12-01T02:04:08.107Z,0
2017-12-01T02:05:08.708Z,0
2017-12-01T02:06:09.307Z,0
2017-12-01T02:07:09.906Z,0
2017-12-01T02:08:10.533Z,0
2017-12-01T02:09:11.137Z,0
2017-12-01T02:10:11.767Z,0
2017-12-01T02:11:12.365Z,0
2017-12-01T02:12:12.964Z,0
2017-12-01T02:13:13.561Z,0
2017-12-01T02:14:14.159Z,0
2017-12-01T02:15:14.758Z,0
2017-12-01T02:16:15.368Z,0
2017-12-01T02:17:15.968Z,0
2017-12-01T02:18:16.597Z,0
2017-12-01T02:19:17.193Z,0
2017-12-01T02:20:17.791Z,0
2017-12-01T02:21:18.390Z,0
2017-12-01T02:22:19.002Z,0
2017-12-01T02:23:19.590Z,0
2017-12-01T02:24:20.188Z,0
2017-12-01T02:25:20.785Z,0
2017-12-01T02:26:21.382Z,0
2017-12-01T02:27:22.016Z,0
2017-12-01T02:28:22.616Z,0
2017-12-01T02:29:23.219Z,0
2017-12-01T02:30:23.815Z,0
2017-12-01T02:31:24.413Z,0
2017-12-01T02:32:25.011Z,0
2017-12-01T02:33:25.616Z,0
2017-12-01T02:34:26.216Z,0
2017-12-01T02:35:26.844Z,0
2017-12-01T02:36:27.441Z,0
2017-12-01T02:37:28.045Z,0
2017-12-01T02:38:28.645Z,0
2017-12-01T02:39:29.244Z,0
2017-12-01T02:40:29.848Z,0
2017-12-01T02:41:30.452Z,0
2017-12-01T02:42:31.083Z,0
2017-12-01T02:43:31.681Z,0
2017-12-01T02:44:32.285Z,0
2017-12-01T02:45:32.897Z,0
2017-12-01T02:46:33.489Z,0
2017-12-01T02:47:34.089Z,0
2017-12-01T02:48:34.720Z,0
2017-12-01T02:49:35.321Z,0
2017-12-01T02:50:35.941Z,0
2017-12-01T02:51:36.550Z,0
2017-12-01T02:52:37.151Z,0
2017-12-01T02:53:37.749Z,0
2017-12-01T02:54:38.349Z,0
2017-12-01T02:55:38.954Z,0
2017-12-01T02:56:39.551Z,0
2017-12-01T02:57:40.154Z,0
2017-12-01T02:58:40.801Z,0
2017-12-01T02:59:41.402Z,0
2017-12-01T03:00:42.004Z,0
2017-12-01T03:01:42.610Z,0
2017-12-01T03:02:43.212Z,0
2017-12-01T03:03:43.809Z,0
2017-12-01T03:04:44.412Z,0
2017-12-01T03:05:45.011Z,0
2017-12-01T03:06:45.609Z,0
2017-12-01T03:07:46.207Z,0
2017-12-01T03:08:46.840Z,0
2017-12-01T03:09:47.443Z,0
2017-12-01T03:10:48.035Z,0
2017-12-01T03:11:48.635Z,0
2017-12-01T03:12:49.235Z,0
2017-12-01T03:13:49.840Z,0
2017-12-01T03:14:50.469Z,0
2017-12-01T03:15:51.068Z,0
2017-12-01T03:16:51.667Z,0
2017-12-01T03:17:52.267Z,0
2017-12-01T03:18:52.868Z,0
2017-12-01T03:19:53.469Z,0
2017-12-01T03:20:54.068Z,0
2017-12-01T03:21:54.668Z,0
2017-12-01T03:22:55.304Z,0
2017-12-01T03:23:55.900Z,0
2017-12-01T03:24:56.498Z,0
2017-12-01T03:25:57.098Z,0
2017-12-01T03:26:57.696Z,0
2017-12-01T03:27:58.294Z,0
2017-12-01T03:28:58.893Z,0
2017-12-01T03:29:59.492Z,0
2017-12-01T03:31:00.122Z,0
2017-12-01T03:32:00.721Z,0
2017-12-01T03:33:01.326Z,0
2017-12-01T03:34:01.959Z,0
2017-12-01T03:35:02.555Z,0
2017-12-01T03:36:03.156Z,0
2017-12-01T03:37:03.756Z,0
2017-12-01T03:38:04.388Z,0
2017-12-01T03:39:04.986Z,0
2017-12-01T03:40:05.592Z,0
2017-12-01T03:41:06.193Z,0
2017-12-01T03:42:06.790Z,0
2017-12-01T03:43:07.389Z,0
2017-12-01T03:44:07.993Z,0
2017-12-01T03:45:08.593Z,0
2017-12-01T03:46:09.191Z,0
2017-12-01T03:47:09.790Z,0
2017-12-01T03:48:10.395Z,0
2017-12-01T03:49:10.989Z,0
2017-12-01T03:50:11.595Z,0
2017-12-01T03:51:12.193Z,0
2017-12-01T03:52:12.794Z,0
2017-12-01T03:53:13.390Z,0
2017-12-01T03:54:13.998Z,0
2017-12-01T03:55:14.605Z,0
2017-12-01T03:56:15.202Z,0
2017-12-01T03:57:15.802Z,0
2017-12-01T03:58:16.400Z,0
2017-12-01T03:59:17.001Z,0
2017-12-01T04:00:17.635Z,0
2017-12-01T04:01:18.231Z,0
2017-12-01T04:02:18.829Z,0
2017-12-01T04:03:19.427Z,0
2017-12-01T04:04:20.025Z,0
2017-12-01T04:05:20.627Z,0
2017-12-01T04:06:21.258Z,0
2017-12-01T04:07:21.860Z,0
2017-12-01T04:08:22.488Z,0
2017-12-01T04:09:23.083Z,0
2017-12-01T04:10:23.684Z,0
2017-12-01T04:11:24.293Z,0
2017-12-01T04:12:24.923Z,0
2017-12-01T04:13:25.521Z,0
2017-12-01T04:14:26.125Z,0
2017-12-01T04:15:26.754Z,0
2017-12-01T04:16:27.353Z,0
2017-12-01T04:17:27.985Z,0
2017-12-01T04:18:28.588Z,0
2017-12-01T04:19:29.187Z,0
2017-12-01T04:20:29.819Z,0
2017-12-01T04:21:30.449Z,0
2017-12-01T04:22:31.048Z,0
2017-12-01T04:23:31.647Z,0
2017-12-01T04:24:32.246Z,0
2017-12-01T04:25:32.846Z,0
2017-12-01T04:26:33.444Z,0
2017-12-01T04:27:34.047Z,0
2017-12-01T04:28:34.642Z,0
2017-12-01T04:29:35.249Z,0
2017-12-01T04:30:35.846Z,0
2017-12-01T04:31:36.449Z,0
2017-12-01T04:32:37.078Z,0
2017-12-01T04:33:37.677Z,0
2017-12-01T04:34:38.276Z,0
2017-12-01T04:35:38.876Z,0
2017-12-01T04:36:39.478Z,0
2017-12-01T04:37:40.076Z,0
2017-12-01T04:38:40.707Z,0
2017-12-01T04:39:41.302Z,0
2017-12-01T04:40:41.902Z,0
2017-12-01T04:41:42.506Z,0
2017-12-01T04:42:43.107Z,0
2017-12-01T04:43:43.729Z,0
2017-12-01T04:44:44.327Z,0
2017-12-01T04:45:44.932Z,0
2017-12-01T04:46:45.526Z,0
2017-12-01T04:47:46.132Z,0
2017-12-01T04:48:46.729Z,0
2017-12-01T04:49:47.331Z,0
2017-12-01T04:50:47.928Z,0
2017-12-01T04:51:48.526Z,0
2017-12-01T04:52:49.123Z,0
2017-12-01T04:53:49.721Z,0
2017-12-01T04:54:50.324Z,0
2017-12-01T04:55:50.920Z,0
2017-12-01T04:56:51.523Z,0
2017-12-01T04:57:52.129Z,0
2017-12-01T04:58:52.728Z,0
2017-12-01T04:59:53.330Z,0
2017-12-01T05:00:53.925Z,0
2017-12-01T05:01:54.529Z,0
2017-12-01T05:02:55.158Z,0
2017-12-01T05:03:55.758Z,0
2017-12-01T05:04:56.404Z,0
2017-12-01T05:05:57.005Z,0
2017-12-01T05:06:57.608Z,0
2017-12-01T05:07:58.204Z,0
2017-12-01T05:08:58.804Z,0
2017-12-01T05:09:59.452Z,0
2017-12-01T05:11:00.050Z,0
2017-12-01T05:12:00.652Z,0
2017-12-01T05:13:01.257Z,0
2017-12-01T05:14:01.858Z,0
2017-12-01T05:15:02.454Z,0
2017-12-01T05:16:03.055Z,0
2017-12-01T05:17:03.658Z,0
2017-12-01T05:18:04.254Z,0
2017-12-01T05:19:04.856Z,0
2017-12-01T05:20:05.491Z,0
2017-12-01T05:21:06.081Z,0
2017-12-01T05:22:06.686Z,0
2017-12-01T05:23:07.284Z,0
2017-12-01T05:24:07.884Z,0
2017-12-01T05:25:08.483Z,0
2017-12-01T05:26:09.082Z,0
2017-12-01T05:27:09.682Z,0
2017-12-01T05:28:10.281Z,0
2017-12-01T05:29:10.880Z,0
2017-12-01T05:30:11.477Z,0
2017-12-01T05:31:12.074Z,0
2017-12-01T05:32:12.675Z,0
2017-12-01T05:33:13.275Z,0
2017-12-01T05:34:13.874Z,0
2017-12-01T05:35:14.529Z,0
2017-12-01T05:36:15.129Z,0
2017-12-01T05:37:15.727Z,0
2017-12-01T05:38:16.328Z,0
2017-12-01T05:39:16.927Z,0
2017-12-01T05:40:17.526Z,0
2017-12-01T05:41:18.130Z,0
2017-12-01T05:42:18.726Z,0
2017-12-01T05:43:19.356Z,0
2017-12-01T05:44:19.955Z,0
2017-12-01T05:45:20.558Z,0
2017-12-01T05:46:21.156Z,0
2017-12-01T05:47:21.754Z,0
2017-12-01T05:48:22.363Z,0
2017-12-01T05:49:22.951Z,0
2017-12-01T05:50:23.549Z,0
2017-12-01T05:51:24.149Z,0
2017-12-01T05:52:24.754Z,0
2017-12-01T05:53:25.384Z,0
2017-12-01T05:54:25.990Z,0
2017-12-01T05:55:26.590Z,0
2017-12-01T05:56:27.220Z,0
2017-12-01T05:57:27.816Z,0
2017-12-01T05:58:28.418Z,0
2017-12-01T05:59:29.017Z,0
2017-12-01T06:00:29.622Z,0
2017-12-01T06:01:30.222Z,0
2017-12-01T06:02:30.850Z,0
2017-12-01T06:03:31.455Z,0
2017-12-01T06:04:32.088Z,0
2017-12-01T06:05:32.697Z,0
2017-12-01T06:06:33.293Z,0
2017-12-01T06:07:33.892Z,0
2017-12-01T06:08:34.491Z,0
2017-12-01T06:09:35.120Z,0
2017-12-01T06:10:35.717Z,0
2017-12-01T06:11:36.323Z,0
2017-12-01T06:12:36.921Z,0
2017-12-01T06:13:37.521Z,0
2017-12-01T06:14:38.118Z,0
2017-12-01T06:15:38.717Z,0
2017-12-01T06:16:39.322Z,0
2017-12-01T06:17:39.920Z,0
2017-12-01T06:18:40.520Z,0
2017-12-01T06:19:41.120Z,0
2017-12-01T06:20:41.726Z,0
2017-12-01T06:21:42.323Z,0
2017-12-01T06:22:42.920Z,0
2017-12-01T06:23:43.519Z,0
2017-12-01T06:24:44.117Z,0
2017-12-01T06:25:44.716Z,0
2017-12-01T06:26:45.318Z,0
2017-12-01T06:27:45.924Z,0
2017-12-01T06:28:46.519Z,0
2017-12-01T06:29:47.120Z,0
2017-12-01T06:30:47.721Z,0
2017-12-01T06:31:48.317Z,0
2017-12-01T06:32:48.915Z,0
2017-12-01T06:33:49.513Z,0
2017-12-01T06:34:50.120Z,4
2017-12-01T06:35:50.724Z,0
2017-12-01T06:36:51.329Z,4
2017-12-01T06:37:51.926Z,4
2017-12-01T06:38:52.525Z,0
2017-12-01T06:39:53.125Z,4
2017-12-01T06:40:53.721Z,4
2017-12-01T06:41:54.321Z,4
2017-12-01T06:42:54.938Z,4
2017-12-01T06:43:55.564Z,8
2017-12-01T06:44:56.159Z,8
2017-12-01T06:45:56.764Z,8
2017-12-01T06:46:57.391Z,8
2017-12-01T06:47:57.990Z,12
2017-12-01T06:48:58.596Z,12
2017-12-01T06:49:59.201Z,12
2017-12-01T06:50:59.828Z,12
2017-12-01T06:52:00.434Z,16
2017-12-01T06:53:01.032Z,16
2017-12-01T06:54:01.634Z,20
2017-12-01T06:55:02.236Z,20
2017-12-01T06:56:02.834Z,20
2017-12-01T06:57:03.435Z,24
2017-12-01T06:58:04.040Z,24
2017-12-01T06:59:04.677Z,28
2017-12-01T07:00:05.273Z,28
2017-12-01T07:01:05.873Z,28
2017-12-01T07:02:06.476Z,36
2017-12-01T07:03:07.076Z,32
2017-12-01T07:04:07.676Z,40
2017-12-01T07:05:08.276Z,40
2017-12-01T07:06:08.876Z,44
2017-12-01T07:07:09.476Z,48
2017-12-01T07:08:10.081Z,48
2017-12-01T07:09:10.679Z,56
2017-12-01T07:10:11.280Z,56
2017-12-01T07:11:11.879Z,56
2017-12-01T07:12:12.482Z,60
2017-12-01T07:13:13.112Z,60
2017-12-01T07:14:13.713Z,68
2017-12-01T07:15:14.316Z,72
2017-12-01T07:16:14.912Z,72
2017-12-01T07:17:15.511Z,76
2017-12-01T07:18:16.116Z,80
2017-12-01T07:19:16.717Z,84
2017-12-01T07:20:17.317Z,92
2017-12-01T07:21:17.918Z,100
2017-12-01T07:22:18.594Z,104
2017-12-01T07:23:19.158Z,116
2017-12-01T07:24:19.757Z,124
2017-12-01T07:25:20.359Z,124
2017-12-01T07:26:20.968Z,128
2017-12-01T07:27:21.581Z,128
2017-12-01T07:28:22.183Z,128
2017-12-01T07:29:22.783Z,132
2017-12-01T07:30:23.384Z,132
2017-12-01T07:31:23.988Z,128
2017-12-01T07:32:24.595Z,128
2017-12-01T07:33:25.196Z,124
2017-12-01T07:34:25.796Z,116
2017-12-01T07:35:26.396Z,116
2017-12-01T07:36:26.999Z,108
2017-12-01T07:37:27.602Z,108
2017-12-01T07:38:28.203Z,104
2017-12-01T07:39:28.804Z,104
2017-12-01T07:40:29.411Z,104
2017-12-01T07:41:30.008Z,100
2017-12-01T07:42:30.610Z,100
2017-12-01T07:43:31.214Z,100
2017-12-01T07:44:31.814Z,100
2017-12-01T07:45:32.414Z,100
2017-12-01T07:46:33.025Z,100
2017-12-01T07:47:33.626Z,100
2017-12-01T07:48:34.258Z,100
2017-12-01T07:49:34.859Z,104
2017-12-01T07:50:35.463Z,100
2017-12-01T07:51:36.102Z,104
2017-12-01T07:52:36.703Z,104
2017-12-01T07:53:37.306Z,108
2017-12-01T07:54:37.937Z,108
2017-12-01T07:55:38.538Z,112
2017-12-01T07:56:39.166Z,116
2017-12-01T07:57:39.767Z,120
2017-12-01T07:58:40.368Z,128
2017-12-01T07:59:40.969Z,132
2017-12-01T08:00:41.570Z,144
2017-12-01T08:01:42.172Z,152
2017-12-01T08:02:42.776Z,160
2017-12-01T08:03:43.380Z,172
2017-12-01T08:04:43.980Z,188
2017-12-01T08:05:44.582Z,200
2017-12-01T08:06:45.187Z,216
2017-12-01T08:07:45.824Z,228
2017-12-01T08:08:46.457Z,236
2017-12-01T08:09:47.072Z,248
2017-12-01T08:10:47.703Z,252
2017-12-01T08:11:48.363Z,256
2017-12-01T08:12:48.963Z,264
2017-12-01T08:13:49.576Z,264
2017-12-01T08:14:50.222Z,264
2017-12-01T08:15:50.780Z,260
2017-12-01T08:16:51.409Z,260
2017-12-01T08:17:52.017Z,264
2017-12-01T08:18:52.619Z,264
2017-12-01T08:19:53.228Z,264
2017-12-01T08:20:53.827Z,264
2017-12-01T08:21:54.435Z,264
2017-12-01T08:22:55.035Z,264
2017-12-01T08:23:55.637Z,260
2017-12-01T08:24:56.270Z,260
2017-12-01T08:25:56.878Z,264
2017-12-01T08:26:57.481Z,268
2017-12-01T08:27:58.088Z,272
2017-12-01T08:28:58.691Z,280
2017-12-01T08:29:59.292Z,292
2017-12-01T08:30:59.897Z,300
2017-12-01T08:32:00.501Z,308
2017-12-01T08:33:01.111Z,316
2017-12-01T08:34:01.718Z,324
2017-12-01T08:35:02.324Z,324
2017-12-01T08:36:02.930Z,328
2017-12-01T08:37:03.531Z,332
2017-12-01T08:38:04.168Z,336
2017-12-01T08:39:04.775Z,336
2017-12-01T08:40:05.384Z,336
2017-12-01T08:41:05.979Z,340
2017-12-01T08:42:06.583Z,348
2017-12-01T08:43:07.194Z,348
2017-12-01T08:44:07.794Z,356
2017-12-01T08:45:08.395Z,364
2017-12-01T08:46:09.002Z,372
2017-12-01T08:47:09.611Z,388
2017-12-01T08:48:10.213Z,400
2017-12-01T08:49:10.815Z,412
2017-12-01T08:50:11.423Z,420
2017-12-01T08:51:12.024Z,432
2017-12-01T08:52:12.628Z,432
2017-12-01T08:53:13.232Z,436
2017-12-01T08:54:13.841Z,468
2017-12-01T08:55:14.442Z,524
2017-12-01T08:56:15.046Z,576
2017-12-01T08:57:15.650Z,620
2017-12-01T08:58:16.252Z,652
2017-12-01T08:59:16.857Z,696
2017-12-01T09:00:17.459Z,728
2017-12-01T09:01:18.064Z,716
2017-12-01T09:02:18.673Z,704
2017-12-01T09:03:19.273Z,696
2017-12-01T09:04:19.878Z,684
2017-12-01T09:05:20.481Z,676
2017-12-01T09:06:21.100Z,688
2017-12-01T09:07:21.692Z,708
2017-12-01T09:08:22.328Z,704
2017-12-01T09:09:22.943Z,724
2017-12-01T09:10:23.545Z,736
2017-12-01T09:11:24.148Z,760
2017-12-01T09:12:24.758Z,768
2017-12-01T09:13:25.394Z,888
2017-12-01T09:14:26.006Z,992
2017-12-01T09:15:26.609Z,1088
2017-12-01T09:16:27.242Z,1200
2017-12-01T09:17:27.848Z,1228
2017-12-01T09:18:28.454Z,1272
2017-12-01T09:19:29.062Z,1340
2017-12-01T09:20:29.699Z,1380
2017-12-01T09:21:30.307Z,1380
2017-12-01T09:22:30.912Z,1356
2017-12-01T09:23:31.522Z,1348
2017-12-01T09:24:32.127Z,1336
2017-12-01T09:25:32.763Z,1276
2017-12-01T09:26:33.370Z,1244
2017-12-01T09:27:33.981Z,1012
2017-12-01T09:28:34.616Z,972
2017-12-01T09:29:35.224Z,852
2017-12-01T09:30:35.829Z,820
2017-12-01T09:31:36.438Z,876
2017-12-01T09:32:37.080Z,968
2017-12-01T09:33:37.696Z,1016
2017-12-01T09:34:38.299Z,1132
2017-12-01T09:35:38.903Z,1124
2017-12-01T09:36:39.510Z,1072
2017-12-01T09:37:40.118Z,1104
2017-12-01T09:38:40.722Z,1080
2017-12-01T09:39:41.329Z,1144
2017-12-01T09:40:41.936Z,1176
2017-12-01T09:41:42.573Z,1160
2017-12-01T09:42:43.178Z,1132
2017-12-01T09:43:43.785Z,1176
2017-12-01T09:44:44.396Z,1016
2017-12-01T09:45:45.003Z,960
2017-12-01T09:46:45.608Z,1024
2017-12-01T09:47:46.221Z,1000
2017-12-01T09:48:46.830Z,1200
2017-12-01T09:49:47.438Z,1468
2017-12-01T09:50:48.041Z,1480
2017-12-01T09:51:48.647Z,1224
2017-12-01T09:52:49.255Z,1244
2017-12-01T09:53:49.862Z,1532
2017-12-01T09:54:50.468Z,1592
2017-12-01T09:55:51.074Z,1740
2017-12-01T09:56:51.683Z,1812
2017-12-01T09:57:52.295Z,1676
2017-12-01T09:58:52.902Z,1880
2017-12-01T09:59:53.537Z,1944
2017-12-01T10:00:54.147Z,2128
2017-12-01T10:01:54.813Z,2176
2017-12-01T10:02:55.367Z,2316
2017-12-01T10:03:55.974Z,2312
2017-12-01T10:04:56.610Z,2056
2017-12-01T10:05:57.216Z,1996
2017-12-01T10:06:57.822Z,1816
2017-12-01T10:07:58.430Z,1744
2017-12-01T10:08:59.038Z,1568
2017-12-01T10:09:59.647Z,2024
2017-12-01T10:11:00.288Z,2060
2017-12-01T10:12:00.894Z,1940
2017-12-01T10:13:01.501Z,1828
2017-12-01T10:14:02.111Z,1840
2017-12-01T10:15:02.718Z,1936
2017-12-01T10:16:03.325Z,1884
2017-12-01T10:17:03.932Z,1640
2017-12-01T10:18:04.547Z,1260
2017-12-01T10:19:05.154Z,1204
2017-12-01T10:20:05.759Z,1028
2017-12-01T10:21:06.394Z,1056
2017-12-01T10:22:07.002Z,1076
2017-12-01T10:23:07.610Z,1084
2017-12-01T10:24:08.247Z,1228
2017-12-01T10:25:08.859Z,1228
2017-12-01T10:26:09.465Z,1484
2017-12-01T10:27:10.073Z,1724
2017-12-01T10:28:10.681Z,1924
2017-12-01T10:29:11.289Z,1696
2017-12-01T10:30:11.905Z,2288
2017-12-01T10:31:12.515Z,2368
2017-12-01T10:32:13.119Z,2228
2017-12-01T10:33:13.727Z,2176
2017-12-01T10:34:14.338Z,2184
2017-12-01T10:35:14.946Z,2048
2017-12-01T10:36:15.556Z,2184
2017-12-01T10:37:16.163Z,1760
2017-12-01T10:38:16.775Z,1380
2017-12-01T10:39:17.383Z,1404
2017-12-01T10:40:17.997Z,1552
2017-12-01T10:41:18.607Z,1632
2017-12-01T10:42:19.238Z,1640
2017-12-01T10:43:19.849Z,1616
2017-12-01T10:44:20.458Z,2220
2017-12-01T10:45:21.068Z,2252
2017-12-01T10:46:21.677Z,2448
2017-12-01T10:47:22.293Z,2444
2017-12-01T10:48:22.938Z,2584
2017-12-01T10:49:23.547Z,2584
2017-12-01T10:50:24.158Z,2612
2017-12-01T10:51:24.772Z,2696
2017-12-01T10:52:25.380Z,2648
2017-12-01T10:53:25.996Z,2516
2017-12-01T10:54:26.604Z,2512
2017-12-01T10:55:27.216Z,2564
2017-12-01T10:56:27.831Z,2524
2017-12-01T10:57:28.438Z,2464
2017-12-01T10:58:29.048Z,2612
2017-12-01T10:59:29.664Z,2580
2017-12-01T11:00:30.271Z,2564
2017-12-01T11:01:30.880Z,2544
2017-12-01T11:02:31.490Z,2528
2017-12-01T11:03:32.102Z,2460
2017-12-01T11:04:32.718Z,2436
2017-12-01T11:05:33.358Z,2404
2017-12-01T11:06:33.969Z,2340
2017-12-01T11:07:34.585Z,2196
2017-12-01T11:08:35.200Z,1968
2017-12-01T11:09:35.813Z,1864
2017-12-01T11:10:36.420Z,1664
2017-12-01T11:11:37.032Z,1804
2017-12-01T11:12:37.644Z,1968
2017-12-01T11:13:38.252Z,1720
2017-12-01T11:14:38.866Z,1552
2017-12-01T11:15:39.472Z,1372
2017-12-01T11:16:40.086Z,1096
2017-12-01T11:17:40.694Z,952
2017-12-01T11:18:41.306Z,800
2017-12-01T11:19:41.910Z,740
2017-12-01T11:20:42.516Z,748
2017-12-01T11:21:43.130Z,764
2017-12-01T11:22:43.736Z,808
2017-12-01T11:23:44.342Z,904
2017-12-01T11:24:44.952Z,916
2017-12-01T11:25:45.563Z,896
2017-12-01T11:26:46.173Z,1048
2017-12-01T11:27:46.780Z,1260
2017-12-01T11:28:47.421Z,1296
2017-12-01T11:29:48.030Z,1376
2017-12-01T11:30:48.646Z,1204
2017-12-01T11:31:49.262Z,1392
2017-12-01T11:32:49.871Z,1552
2017-12-01T11:33:50.476Z,1292
2017-12-01T11:34:51.085Z,1256
2017-12-01T11:35:51.693Z,1132
2017-12-01T11:36:52.307Z,1204
2017-12-01T11:37:52.914Z,1348
2017-12-01T11:38:53.521Z,1408
2017-12-01T11:39:54.135Z,1516
2017-12-01T11:40:54.742Z,1568
2017-12-01T11:41:55.351Z,1520
2017-12-01T11:42:55.989Z,1600
2017-12-01T11:43:56.631Z,1416
2017-12-01T11:44:57.248Z,1340
2017-12-01T11:45:57.887Z,1408
2017-12-01T11:46:58.527Z,1340
2017-12-01T11:47:59.135Z,1328
2017-12-01T11:48:59.784Z,1228
2017-12-01T11:50:00.391Z,1300
2017-12-01T11:51:00.996Z,1284
2017-12-01T11:52:01.609Z,1244
2017-12-01T11:53:02.220Z,1280
2017-12-01T11:54:02.842Z,1312
2017-12-01T11:55:03.446Z,1312
2017-12-01T11:56:04.055Z,1348
2017-12-01T11:57:04.665Z,1356
2017-12-01T11:58:05.273Z,1392
2017-12-01T11:59:05.887Z,1380
2017-12-01T12:00:06.492Z,1432
2017-12-01T12:01:07.109Z,1400
2017-12-01T12:02:07.717Z,1256
2017-12-01T12:03:08.327Z,1180
2017-12-01T12:04:08.986Z,1028
2017-12-01T12:05:09.600Z,1008
2017-12-01T12:06:10.242Z,1028
2017-12-01T12:07:10.847Z,984
2017-12-01T12:08:11.464Z,964
2017-12-01T12:09:12.072Z,960
2017-12-01T12:10:12.681Z,952
2017-12-01T12:11:13.285Z,940
2017-12-01T12:12:13.898Z,932
2017-12-01T12:13:14.510Z,932
2017-12-01T12:14:15.108Z,932
2017-12-01T12:15:15.716Z,932
2017-12-01T12:16:16.321Z,928
2017-12-01T12:17:16.928Z,928
2017-12-01T12:18:17.537Z,932
2017-12-01T12:19:18.143Z,928
2017-12-01T12:20:18.767Z,932
2017-12-01T12:21:19.365Z,944
2017-12-01T12:22:19.973Z,956
2017-12-01T12:23:20.579Z,968
2017-12-01T12:24:21.185Z,984
2017-12-01T12:25:21.794Z,1108
2017-12-01T12:26:22.401Z,1364
2017-12-01T12:27:23.016Z,1600
2017-12-01T12:28:23.618Z,2124
2017-12-01T12:29:24.227Z,1988
2017-12-01T12:30:24.838Z,1752
2017-12-01T12:31:25.444Z,1608
2017-12-01T12:32:26.055Z,1604
2017-12-01T12:33:26.664Z,1668
2017-12-01T12:34:27.275Z,1892
2017-12-01T12:35:27.920Z,2048
2017-12-01T12:36:28.528Z,2260
2017-12-01T12:37:29.144Z,2320
2017-12-01T12:38:29.756Z,2220
2017-12-01T12:39:30.364Z,2128
2017-12-01T12:40:31.006Z,2140
2017-12-01T12:41:31.616Z,2156
2017-12-01T12:42:32.226Z,2140
2017-12-01T12:43:32.862Z,2148
2017-12-01T12:44:33.469Z,2220
2017-12-01T12:45:34.084Z,2284
2017-12-01T12:46:34.698Z,2264
2017-12-01T12:47:35.365Z,2248
2017-12-01T12:48:35.917Z,2200
2017-12-01T12:49:36.527Z,2248
2017-12-01T12:50:37.135Z,2228
2017-12-01T12:51:37.747Z,2220
2017-12-01T12:52:38.357Z,2152
2017-12-01T12:53:38.974Z,2004
2017-12-01T12:54:39.582Z,2124
2017-12-01T12:55:40.195Z,2264
2017-12-01T12:56:40.801Z,2140
2017-12-01T12:57:41.410Z,2120
2017-12-01T12:58:42.022Z,2236
2017-12-01T12:59:42.634Z,2192
2017-12-01T13:00:43.243Z,2064
2017-12-01T13:01:43.856Z,1928
2017-12-01T13:02:44.464Z,1512
2017-12-01T13:03:45.072Z,1356
2017-12-01T13:04:45.712Z,1208
2017-12-01T13:05:46.348Z,1152
2017-12-01T13:06:46.968Z,1060
2017-12-01T13:07:47.577Z,896
2017-12-01T13:08:48.186Z,804
2017-12-01T13:09:48.800Z,792
2017-12-01T13:10:49.410Z,752
2017-12-01T13:11:50.015Z,728
2017-12-01T13:12:50.627Z,780
2017-12-01T13:13:51.234Z,832
2017-12-01T13:14:51.844Z,832
2017-12-01T13:15:52.451Z,828
2017-12-01T13:16:53.070Z,892
2017-12-01T13:17:53.676Z,1008
2017-12-01T13:18:54.292Z,1088
2017-12-01T13:19:54.903Z,1096
2017-12-01T13:20:55.550Z,1008
2017-12-01T13:21:56.158Z,1208
2017-12-01T13:22:56.795Z,1572
2017-12-01T13:23:57.405Z,1688
2017-12-01T13:24:58.013Z,1804
2017-12-01T13:25:58.621Z,1460
2017-12-01T13:26:59.233Z,1004
2017-12-01T13:27:59.846Z,868
2017-12-01T13:29:00.451Z,872
2017-12-01T13:30:01.088Z,888
2017-12-01T13:31:01.699Z,964
2017-12-01T13:32:02.307Z,936
2017-12-01T13:33:02.918Z,968
2017-12-01T13:34:03.526Z,992
2017-12-01T13:35:04.133Z,900
2017-12-01T13:36:04.753Z,796
2017-12-01T13:37:05.364Z,772
2017-12-01T13:38:05.974Z,756
2017-12-01T13:39:06.588Z,732
2017-12-01T13:40:07.196Z,656
2017-12-01T13:41:07.805Z,620
2017-12-01T13:42:08.417Z,576
2017-12-01T13:43:09.054Z,532
2017-12-01T13:44:09.662Z,504
2017-12-01T13:45:10.320Z,476
2017-12-01T13:46:10.935Z,444
2017-12-01T13:47:11.551Z,424
2017-12-01T13:48:12.160Z,404
2017-12-01T13:49:12.770Z,396
2017-12-01T13:50:13.378Z,384
2017-12-01T13:51:14.015Z,368
2017-12-01T13:52:14.627Z,360
2017-12-01T13:53:15.234Z,352
2017-12-01T13:54:15.844Z,344
2017-12-01T13:55:16.485Z,340
2017-12-01T13:56:17.140Z,332
2017-12-01T13:57:17.701Z,328
2017-12-01T13:58:18.314Z,324
2017-12-01T13:59:18.934Z,324
2017-12-01T14:00:19.535Z,324
2017-12-01T14:01:20.174Z,320
2017-12-01T14:02:20.782Z,320
2017-12-01T14:03:21.396Z,324
2017-12-01T14:04:22.000Z,324
2017-12-01T14:05:22.616Z,328
2017-12-01T14:06:23.250Z,332
2017-12-01T14:07:23.865Z,340
2017-12-01T14:08:24.503Z,356
2017-12-01T14:09:25.116Z,360
2017-12-01T14:10:25.771Z,372
2017-12-01T14:11:26.379Z,380
2017-12-01T14:12:26.987Z,392
2017-12-01T14:13:27.599Z,404
2017-12-01T14:14:28.216Z,420
2017-12-01T14:15:28.823Z,440
2017-12-01T14:16:29.432Z,480